Time;durP1;ratioP1;P1;durP2;ratioP2;P2;SDS_P1;SDS_P2;PMS_P1;PMS_P2;Temp;Humidity;BMP_temperature;BMP_pressure;BME280_temperature;BME280_humidity;BME280_pressure;Samples;Min_cycle;Max_cycle;Signal;HPM_P1;HPM_P2
2023/03/22 00:01:10;;;;;;;5.97;4.05;;;;;;;;;;5114927;28;20048;-86
2023/03/22 00:03:37;;;;;;;12.50;4.60;;;;;;;;;;5115081;28;20113;-86
2023/03/22 00:06:05;;;;;;;8.32;3.60;;;;;;;;;;5114995;28;20040;-86
2023/03/22 00:08:32;;;;;;;5.68;3.78;;;;;;;;;;5097198;28;20047;-86
2023/03/22 00:11:00;;;;;;;9.23;3.50;;;;;;;;;;5097252;28;20086;-86
2023/03/22 00:13:27;;;;;;;9.68;4.32;;;;;;;;;;5097223;28;20048;-86
2023/03/22 00:15:56;;;;;;;7.80;4.70;;;;;;;;;;5096787;28;20054;-86
2023/03/22 00:18:25;;;;;;;7.20;4.20;;;;;;;;;;5096894;28;20047;-87
2023/03/22 00:20:53;;;;;;;6.38;3.60;;;;;;;;;;5096737;28;20043;-86
2023/03/22 00:23:21;;;;;;;7.05;3.88;;;;;;;;;;5096781;28;20054;-86
2023/03/22 00:25:48;;;;;;;7.03;3.90;;;;;;;;;;5096649;28;20495;-86
2023/03/22 00:28:16;;;;;;;6.72;3.47;;;;;;;;;;5114674;28;20058;-86
2023/03/22 00:30:50;;;;;;;4.50;3.15;;;;;;;;;;5096469;28;20410;-86
2023/03/22 00:33:17;;;;;;;7.57;3.03;;;;;;;;;;5096760;28;20051;-86
2023/03/22 00:35:49;;;;;;;8.07;3.00;;;;;;;;;;5096725;28;20051;-86
2023/03/22 00:38:16;;;;;;;3.60;2.95;;;;;;;;;;5111753;28;20094;-85
2023/03/22 00:40:43;;;;;;;6.90;3.00;;;;;;;;;;5117126;28;20043;-86
2023/03/22 00:43:10;;;;;;;3.65;2.22;;;;;;;;;;5096135;28;20051;-85
2023/03/22 00:45:39;;;;;;;7.15;3.10;;;;;;;;;;5096196;28;20135;-86
2023/03/22 00:48:08;;;;;;;6.07;3.45;;;;;;;;;;5096551;28;20104;-86
2023/03/22 00:50:36;;;;;;;5.53;3.35;;;;;;;;;;5096682;28;20515;-86
2023/03/22 00:53:03;;;;;;;4.25;3.20;;;;;;;;;;5096566;28;20138;-86
2023/03/22 00:55:31;;;;;;;7.30;3.20;;;;;;;;;;5114208;28;20057;-86
2023/03/22 00:57:58;;;;;;;9.68;3.80;;;;;;;;;;5095864;28;20044;-86
2023/03/22 01:00:26;;;;;;;4.35;3.92;;;;;;;;;;5096379;28;20083;-86
2023/03/22 01:02:58;;;;;;;5.93;3.72;;;;;;;;;;5096038;28;20492;-86
2023/03/22 01:05:27;;;;;;;4.38;3.15;;;;;;;;;;5114234;28;20091;-86
2023/03/22 01:07:54;;;;;;;5.88;3.53;;;;;;;;;;5096020;28;20043;-86
2023/03/22 01:10:22;;;;;;;5.18;3.45;;;;;;;;;;5096008;28;20051;-86
2023/03/22 01:12:50;;;;;;;11.07;3.30;;;;;;;;;;5095926;28;20051;-86
2023/03/22 01:15:17;;;;;;;9.68;3.42;;;;;;;;;;5095917;28;20055;-86
2023/03/22 01:17:44;;;;;;;4.40;3.38;;;;;;;;;;5096117;28;20044;-86
2023/03/22 01:20:12;;;;;;;5.70;3.30;;;;;;;;;;5096042;28;20057;-86
2023/03/22 01:22:40;;;;;;;4.13;3.03;;;;;;;;;;5113887;28;20047;-86
2023/03/22 01:25:07;;;;;;;8.90;3.42;;;;;;;;;;5095791;28;20384;-86
2023/03/22 01:27:34;;;;;;;8.05;3.70;;;;;;;;;;5095832;28;20043;-86
2023/03/22 01:30:02;;;;;;;9.38;3.80;;;;;;;;;;5095914;28;20059;-86
2023/03/22 01:32:29;;;;;;;5.40;3.40;;;;;;;;;;5095873;28;20403;-86
2023/03/22 01:34:56;;;;;;;8.07;3.53;;;;;;;;;;5095468;28;20494;-86
2023/03/22 01:37:26;;;;;;;5.88;3.80;;;;;;;;;;5113775;28;20410;-86
2023/03/22 01:39:56;;;;;;;7.68;3.63;;;;;;;;;;5113659;28;20591;-85
2023/03/22 01:42:24;;;;;;;8.65;3.63;;;;;;;;;;5095715;28;20043;-86
2023/03/22 01:45:30;;;;;;;7.78;3.88;;;;;;;;;;5095589;28;20517;-85
2023/03/22 01:47:59;;;;;;;11.10;4.28;;;;;;;;;;5030898;28;20089;-85
2023/03/22 01:50:27;;;;;;;7.05;3.30;;;;;;;;;;5031462;28;20133;-86
2023/03/22 01:52:56;;;;;;;6.18;3.60;;;;;;;;;;5087138;28;20062;-86
2023/03/22 01:55:24;;;;;;;5.47;3.47;;;;;;;;;;5097720;28;20122;-86
2023/03/22 01:57:52;;;;;;;6.07;3.47;;;;;;;;;;5095249;28;20058;-85
2023/03/22 02:00:20;;;;;;;8.43;4.65;;;;;;;;;;5095622;28;20048;-86
2023/03/22 02:02:49;;;;;;;8.15;3.80;;;;;;;;;;5095648;28;20048;-86
2023/03/22 02:05:17;;;;;;;6.80;3.70;;;;;;;;;;5113598;28;20047;-86
2023/03/22 02:07:45;;;;;;;8.07;4.00;;;;;;;;;;5095389;28;20051;-86
2023/03/22 02:10:13;;;;;;;10.20;4.07;;;;;;;;;;5115279;28;20058;-86
2023/03/22 02:13:13;;;;;;;6.03;3.80;;;;;;;;;;5099264;28;20171;-86
2023/03/22 02:15:59;;;;;;;9.75;4.03;;;;;;;;;;5066681;28;20054;-85
2023/03/22 02:18:26;;;;;;;8.20;3.65;;;;;;;;;;5099081;28;20483;-86
2023/03/22 02:20:57;;;;;;;6.38;3.85;;;;;;;;;;5099155;28;20106;-86
2023/03/22 02:23:33;;;;;;;8.95;4.03;;;;;;;;;;5098618;28;20050;-86
2023/03/22 02:26:17;;;;;;;7.93;4.30;;;;;;;;;;5099348;28;20138;-86
2023/03/22 02:29:03;;;;;;;6.57;4.47;;;;;;;;;;5099115;28;20048;-86
2023/03/22 02:31:49;;;;;;;5.95;4.07;;;;;;;;;;5098626;28;20126;-86
2023/03/22 02:34:29;;;;;;;8.15;3.78;;;;;;;;;;5098901;28;20047;-86
2023/03/22 02:37:12;;;;;;;11.43;4.85;;;;;;;;;;5098608;28;20055;-86
2023/03/22 02:39:45;;;;;;;8.30;4.55;;;;;;;;;;5098606;28;20066;-86
2023/03/22 02:42:20;;;;;;;10.25;5.65;;;;;;;;;;5098784;28;20385;-86
2023/03/22 02:44:54;;;;;;;12.02;5.60;;;;;;;;;;5116605;28;20044;-85
2023/03/22 02:47:24;;;;;;;9.65;5.38;;;;;;;;;;5116675;28;20484;-86
2023/03/22 02:49:58;;;;;;;8.38;5.03;;;;;;;;;;5098589;28;20495;-85
2023/03/22 02:52:38;;;;;;;9.68;5.65;;;;;;;;;;5098732;28;20275;-86
2023/03/22 02:55:21;;;;;;;10.93;6.00;;;;;;;;;;5098486;28;20075;-86
2023/03/22 02:57:49;;;;;;;10.63;5.22;;;;;;;;;;5116267;28;20051;-86
2023/03/22 03:00:18;;;;;;;8.73;5.00;;;;;;;;;;5097849;28;20044;-86
2023/03/22 03:02:48;;;;;;;7.20;5.20;;;;;;;;;;5098451;28;20048;-87
2023/03/22 03:05:17;;;;;;;9.77;5.90;;;;;;;;;;5098653;28;20051;-88
2023/03/22 03:07:46;;;;;;;13.80;5.35;;;;;;;;;;5131100;28;20103;-88
2023/03/22 03:10:15;;;;;;;14.05;7.72;;;;;;;;;;5118132;28;20484;-87
2023/03/22 03:12:43;;;;;;;13.65;7.35;;;;;;;;;;5115878;28;20043;-87
2023/03/22 03:15:14;;;;;;;10.38;6.63;;;;;;;;;;5115965;28;20093;-87
2023/03/22 03:17:53;;;;;;;11.98;6.47;;;;;;;;;;5116022;28;20048;-87
2023/03/22 03:20:28;;;;;;;13.45;6.85;;;;;;;;;;5097866;28;20055;-88
2023/03/22 03:23:14;;;;;;;11.15;6.75;;;;;;;;;;5098012;28;20105;-87
2023/03/22 03:26:00;;;;;;;10.75;6.85;;;;;;;;;;5097545;28;20043;-87
2023/03/22 03:28:43;;;;;;;10.18;5.53;;;;;;;;;;5097869;28;20051;-87
2023/03/22 03:31:10;;;;;;;11.85;6.90;;;;;;;;;;5097923;28;20051;-88
2023/03/22 03:33:41;;;;;;;11.90;6.45;;;;;;;;;;5097705;28;20124;-87
2023/03/22 03:36:10;;;;;;;13.27;6.47;;;;;;;;;;5097466;28;20070;-87
2023/03/22 03:38:43;;;;;;;12.80;6.30;;;;;;;;;;5115374;28;20396;-88
2023/03/22 03:41:12;;;;;;;13.90;7.05;;;;;;;;;;5097740;28;20158;-87
2023/03/22 03:43:40;;;;;;;9.80;6.65;;;;;;;;;;5097194;28;20059;-87
2023/03/22 03:46:07;;;;;;;11.02;6.60;;;;;;;;;;5115326;28;20479;-87
2023/03/22 03:48:36;;;;;;;14.95;7.15;;;;;;;;;;5097346;28;20146;-88
2023/03/22 03:51:04;;;;;;;14.45;7.63;;;;;;;;;;5115430;28;20407;-87
2023/03/22 03:53:31;;;;;;;14.18;7.55;;;;;;;;;;5115332;28;20051;-87
2023/03/22 03:55:59;;;;;;;12.95;7.60;;;;;;;;;;5097311;28;20050;-87
2023/03/22 03:58:29;;;;;;;17.30;7.95;;;;;;;;;;5097083;28;20039;-88
2023/03/22 04:00:56;;;;;;;13.65;7.30;;;;;;;;;;5115037;28;20048;-87
2023/03/22 04:03:24;;;;;;;17.83;8.18;;;;;;;;;;5096947;28;20043;-88
2023/03/22 04:05:51;;;;;;;11.82;7.78;;;;;;;;;;5097205;28;20088;-88
2023/03/22 04:08:18;;;;;;;15.00;8.02;;;;;;;;;;5114967;28;20054;-87
2023/03/22 04:10:49;;;;;;;12.40;7.22;;;;;;;;;;5096983;28;20047;-87
2023/03/22 04:13:20;;;;;;;16.00;8.35;;;;;;;;;;5096836;28;20059;-87
2023/03/22 04:15:51;;;;;;;24.38;13.88;;;;;;;;;;5096875;28;20052;-87
2023/03/22 04:18:20;;;;;;;24.23;14.00;;;;;;;;;;5097072;28;20083;-87
2023/03/22 04:20:48;;;;;;;15.27;9.68;;;;;;;;;;5097308;28;20130;-87
2023/03/22 04:23:15;;;;;;;18.05;10.57;;;;;;;;;;5104736;28;20052;-88
2023/03/22 04:25:48;;;;;;;17.67;9.85;;;;;;;;;;5096584;28;20050;-87
2023/03/22 04:28:18;;;;;;;19.63;10.75;;;;;;;;;;5096830;28;20138;-87
2023/03/22 04:30:51;;;;;;;23.40;10.60;;;;;;;;;;5114767;28;20056;-87
2023/03/22 04:33:21;;;;;;;16.65;10.60;;;;;;;;;;5096369;28;20068;-87
2023/03/22 04:35:49;;;;;;;13.55;9.88;;;;;;;;;;5114215;28;20104;-87
2023/03/22 04:38:17;;;;;;;18.02;10.00;;;;;;;;;;5096734;28;20557;-86
2023/03/22 04:40:45;;;;;;;19.30;10.98;;;;;;;;;;5114225;28;20050;-87
2023/03/22 04:43:14;;;;;;;20.20;12.27;;;;;;;;;;5096151;28;20112;-87
2023/03/22 04:45:42;;;;;;;22.48;12.13;;;;;;;;;;5096134;28;20483;-87
2023/03/22 04:48:10;;;;;;;26.70;12.35;;;;;;;;;;5096585;28;20453;-88
2023/03/22 04:50:38;;;;;;;23.50;11.95;;;;;;;;;;5096084;28;20055;-87
2023/03/22 04:53:07;;;;;;;21.73;11.05;;;;;;;;;;5114159;28;20071;-85
2023/03/22 04:55:34;;;;;;;21.92;10.85;;;;;;;;;;5095915;28;20131;-87
2023/03/22 04:58:01;;;;;;;21.67;11.35;;;;;;;;;;5096264;28;20048;-88
2023/03/22 05:00:29;;;;;;;21.63;10.07;;;;;;;;;;5096111;28;20433;-87
2023/03/22 05:02:56;;;;;;;18.95;9.38;;;;;;;;;;5096245;28;20047;-88
2023/03/22 05:05:24;;;;;;;16.20;9.65;;;;;;;;;;5095800;28;20071;-88
2023/03/22 05:07:51;;;;;;;20.42;10.30;;;;;;;;;;5114036;28;20051;-87
2023/03/22 05:10:18;;;;;;;15.45;8.75;;;;;;;;;;5096156;28;20483;-86
2023/03/22 05:12:45;;;;;;;15.82;9.70;;;;;;;;;;5096151;28;20142;-86
2023/03/22 05:15:13;;;;;;;19.92;10.85;;;;;;;;;;5096004;28;20048;-86
2023/03/22 05:17:40;;;;;;;15.02;9.38;;;;;;;;;;5096102;28;20056;-88
2023/03/22 05:20:09;;;;;;;17.95;9.25;;;;;;;;;;5095528;28;20495;-86
2023/03/22 05:22:39;;;;;;;18.85;10.77;;;;;;;;;;5113280;28;20120;-88
2023/03/22 05:25:07;;;;;;;19.67;10.48;;;;;;;;;;5095813;28;20499;-88
2023/03/22 05:27:37;;;;;;;19.48;12.02;;;;;;;;;;5095959;28;20171;-86
2023/03/22 05:30:05;;;;;;;22.23;12.35;;;;;;;;;;5095830;28;20062;-87
2023/03/22 05:32:32;;;;;;;19.60;11.80;;;;;;;;;;5095771;28;20047;-87
2023/03/22 05:35:03;;;;;;;62.85;39.38;;;;;;;;;;5113582;28;20060;-86
2023/03/22 05:37:31;;;;;;;58.13;35.92;;;;;;;;;;5114681;28;20048;-86
2023/03/22 05:39:58;;;;;;;67.55;36.97;;;;;;;;;;5095896;28;20048;-86
2023/03/22 05:42:25;;;;;;;84.38;42.22;;;;;;;;;;5095857;28;20043;-86
2023/03/22 05:44:53;;;;;;;79.57;43.30;;;;;;;;;;5097186;28;20043;-87
2023/03/22 05:47:20;;;;;;;83.38;48.72;;;;;;;;;;5099797;28;20049;-87
2023/03/22 05:49:48;;;;;;;64.43;38.55;;;;;;;;;;5099767;28;20047;-86
2023/03/22 05:52:15;;;;;;;45.97;21.75;;;;;;;;;;5099816;28;20506;-87
2023/03/22 05:54:42;;;;;;;43.08;22.23;;;;;;;;;;5099606;28;20059;-86
2023/03/22 05:57:09;;;;;;;25.27;14.80;;;;;;;;;;5117627;28;20058;-86
2023/03/22 05:59:36;;;;;;;26.83;14.23;;;;;;;;;;5099397;28;20048;-86
2023/03/22 06:02:04;;;;;;;34.42;16.00;;;;;;;;;;5099233;28;20051;-86
2023/03/22 06:04:31;;;;;;;43.33;21.30;;;;;;;;;;5099044;28;20051;-86
2023/03/22 06:06:59;;;;;;;27.50;16.48;;;;;;;;;;5117387;28;20039;-88
2023/03/22 06:09:26;;;;;;;29.23;15.43;;;;;;;;;;5099272;28;20044;-86
2023/03/22 06:11:53;;;;;;;27.30;14.07;;;;;;;;;;5098819;28;20039;-86
2023/03/22 06:14:20;;;;;;;29.65;14.35;;;;;;;;;;5117120;28;20050;-86
2023/03/22 06:16:47;;;;;;;45.97;18.02;;;;;;;;;;5116902;28;20047;-87
2023/03/22 06:19:14;;;;;;;24.05;15.32;;;;;;;;;;5117195;28;20100;-88
2023/03/22 06:21:42;;;;;;;37.28;18.83;;;;;;;;;;5099241;28;20062;-88
2023/03/22 06:24:09;;;;;;;35.58;19.85;;;;;;;;;;5099103;28;20130;-88
2023/03/22 06:26:36;;;;;;;29.33;17.90;;;;;;;;;;5116691;28;20079;-88
2023/03/22 06:29:03;;;;;;;51.72;24.60;;;;;;;;;;5098978;28;20052;-88
2023/03/22 06:31:31;;;;;;;62.55;31.20;;;;;;;;;;5116797;28;20043;-88
2023/03/22 06:33:58;;;;;;;54.60;27.85;;;;;;;;;;5116959;28;20122;-88
2023/03/22 06:36:25;;;;;;;57.65;28.67;;;;;;;;;;5116615;28;20059;-88
2023/03/22 06:38:52;;;;;;;72.20;33.60;;;;;;;;;;5116562;28;20047;-89
2023/03/22 06:41:20;;;;;;;86.78;39.42;;;;;;;;;;5098544;28;20052;-88
2023/03/22 06:43:47;;;;;;;83.88;38.15;;;;;;;;;;5098447;28;20560;-89
2023/03/22 06:46:14;;;;;;;46.15;31.67;;;;;;;;;;5097568;28;20048;-89
2023/03/22 06:48:42;;;;;;;35.63;25.20;;;;;;;;;;5099248;28;20089;-89
2023/03/22 06:51:09;;;;;;;43.40;27.42;;;;;;;;;;5098723;28;20384;-88
2023/03/22 06:53:36;;;;;;;35.33;23.33;;;;;;;;;;5088069;28;20144;-88
2023/03/22 06:56:03;;;;;;;34.40;21.08;;;;;;;;;;5077405;28;20460;-88
2023/03/22 06:58:31;;;;;;;24.80;16.90;;;;;;;;;;5081070;28;20073;-86
2023/03/22 07:00:58;;;;;;;19.65;12.13;;;;;;;;;;5098575;28;20061;-86
2023/03/22 07:03:25;;;;;;;16.42;10.30;;;;;;;;;;5098160;28;20131;-86
2023/03/22 07:05:52;;;;;;;19.42;10.30;;;;;;;;;;5098235;28;20048;-86
2023/03/22 07:08:19;;;;;;;15.02;9.13;;;;;;;;;;5098416;28;20139;-86
2023/03/22 07:10:49;;;;;;;12.57;7.40;;;;;;;;;;5098171;28;20052;-86
2023/03/22 07:13:17;;;;;;;14.77;7.00;;;;;;;;;;5098155;28;20130;-86
2023/03/22 07:15:44;;;;;;;15.55;7.72;;;;;;;;;;5115643;28;20122;-84
2023/03/22 07:18:11;;;;;;;10.27;5.40;;;;;;;;;;5115838;28;20053;-86
2023/03/22 07:20:40;;;;;;;13.85;7.30;;;;;;;;;;5097349;28;20089;-86
2023/03/22 07:23:09;;;;;;;13.95;6.35;;;;;;;;;;5097942;28;20896;-85
2023/03/22 07:25:36;;;;;;;10.45;5.60;;;;;;;;;;5096943;28;20043;-86
2023/03/22 07:28:05;;;;;;;15.07;5.22;;;;;;;;;;5115858;28;20048;-86
2023/03/22 07:30:36;;;;;;;10.52;4.38;;;;;;;;;;5097749;28;20050;-86
2023/03/22 07:33:05;;;;;;;11.23;5.22;;;;;;;;;;5097391;28;20052;-86
2023/03/22 07:35:32;;;;;;;8.02;5.53;;;;;;;;;;5097115;28;20426;-86
2023/03/22 07:38:00;;;;;;;13.95;4.75;;;;;;;;;;5114675;28;20142;-86
2023/03/22 07:40:27;;;;;;;6.63;4.95;;;;;;;;;;5097383;28;20044;-86
2023/03/22 07:42:54;;;;;;;7.53;5.28;;;;;;;;;;5115487;28;20070;-86
2023/03/22 07:45:22;;;;;;;6.53;5.22;;;;;;;;;;5097231;28;20514;-86
2023/03/22 07:47:49;;;;;;;6.43;4.43;;;;;;;;;;5096968;28;20483;-85
2023/03/22 07:50:17;;;;;;;7.90;4.95;;;;;;;;;;5114923;28;20100;-85
2023/03/22 07:52:44;;;;;;;8.00;4.95;;;;;;;;;;5097105;28;20399;-86
2023/03/22 07:55:13;;;;;;;4.45;4.05;;;;;;;;;;5095277;28;20063;-87
2023/03/22 07:57:40;;;;;;;6.38;4.55;;;;;;;;;;5096972;28;20051;-86
2023/03/22 08:00:09;;;;;;;6.03;4.30;;;;;;;;;;5114853;28;20570;-86
2023/03/22 08:02:37;;;;;;;5.45;4.43;;;;;;;;;;5097035;28;20550;-86
2023/03/22 08:05:06;;;;;;;5.10;4.43;;;;;;;;;;5096615;28;20460;-87
2023/03/22 08:07:33;;;;;;;7.50;4.30;;;;;;;;;;5097591;28;20111;-89
2023/03/22 08:10:00;;;;;;;6.03;4.30;;;;;;;;;;5097271;28;20134;-86
2023/03/22 08:12:28;;;;;;;4.57;3.70;;;;;;;;;;5096972;28;20434;-87
2023/03/22 08:14:55;;;;;;;8.18;4.00;;;;;;;;;;5096866;28;20052;-86
2023/03/22 08:17:22;;;;;;;4.78;3.55;;;;;;;;;;5096523;28;20043;-87
2023/03/22 08:19:49;;;;;;;5.43;3.47;;;;;;;;;;5096489;28;20082;-87
2023/03/22 08:22:17;;;;;;;3.90;2.92;;;;;;;;;;5096651;28;20047;-85
2023/03/22 08:24:44;;;;;;;4.43;3.00;;;;;;;;;;5095804;28;20054;-85
2023/03/22 08:27:13;;;;;;;4.60;3.08;;;;;;;;;;5096169;28;20050;-88
2023/03/22 08:29:40;;;;;;;4.68;2.88;;;;;;;;;;5096229;28;20056;-86
2023/03/22 08:32:07;;;;;;;3.78;3.10;;;;;;;;;;5096466;28;20053;-84
2023/03/22 08:34:38;;;;;;;4.20;3.08;;;;;;;;;;5113994;28;20043;-85
2023/03/22 08:37:05;;;;;;;6.10;3.35;;;;;;;;;;5096413;28;20126;-85
2023/03/22 08:39:33;;;;;;;4.63;3.55;;;;;;;;;;5096110;28;20047;-85
2023/03/22 08:42:00;;;;;;;5.25;3.95;;;;;;;;;;5096177;28;20105;-85
2023/03/22 08:44:28;;;;;;;6.03;3.35;;;;;;;;;;5096013;28;20050;-85
2023/03/22 08:46:55;;;;;;;5.88;3.58;;;;;;;;;;5114064;28;20126;-85
2023/03/22 08:49:22;;;;;;;6.35;3.08;;;;;;;;;;5114115;28;20048;-85
2023/03/22 08:51:50;;;;;;;5.05;3.03;;;;;;;;;;5095344;28;20406;-86
2023/03/22 08:54:17;;;;;;;3.72;3.10;;;;;;;;;;5096090;28;20047;-84
2023/03/22 08:56:44;;;;;;;3.90;3.10;;;;;;;;;;5095535;28;20047;-85
2023/03/22 08:59:11;;;;;;;3.33;3.00;;;;;;;;;;5113841;28;20048;-85
2023/03/22 09:01:38;;;;;;;12.77;4.22;;;;;;;;;;5095867;28;20454;-83
2023/03/22 09:04:06;;;;;;;4.78;2.67;;;;;;;;;;5113490;28;20097;-85
2023/03/22 09:06:36;;;;;;;7.28;3.35;;;;;;;;;;5096085;28;20502;-85
2023/03/22 09:09:04;;;;;;;6.82;2.90;;;;;;;;;;5095623;28;20545;-84
2023/03/22 09:11:31;;;;;;;4.55;3.40;;;;;;;;;;5095914;28;20043;-85
2023/03/22 09:13:58;;;;;;;3.40;3.10;;;;;;;;;;5095959;28;20048;-85
2023/03/22 09:16:25;;;;;;;4.13;2.80;;;;;;;;;;5095619;28;20416;-85
2023/03/22 09:18:52;;;;;;;5.05;2.97;;;;;;;;;;5113373;28;20097;-85
2023/03/22 09:21:20;;;;;;;31.50;4.55;;;;;;;;;;5095798;28;20074;-86
2023/03/22 09:23:49;;;;;;;3.03;2.80;;;;;;;;;;5095804;28;20067;-85
2023/03/22 09:26:16;;;;;;;2.97;2.72;;;;;;;;;;5095525;28;20453;-86
2023/03/22 09:28:45;;;;;;;5.45;2.35;;;;;;;;;;5095302;28;20053;-84
2023/03/22 09:31:12;;;;;;;8.80;2.72;;;;;;;;;;5095707;28;20054;-84
2023/03/22 09:33:40;;;;;;;4.63;2.45;;;;;;;;;;5095061;28;20480;-84
2023/03/22 09:36:08;;;;;;;7.20;2.90;;;;;;;;;;5095195;28;20048;-85
2023/03/22 09:38:35;;;;;;;8.27;2.60;;;;;;;;;;5112952;28;20051;-84
2023/03/22 09:41:05;;;;;;;3.45;2.33;;;;;;;;;;5095321;28;20403;-84
2023/03/22 09:43:34;;;;;;;6.15;2.17;;;;;;;;;;5095239;28;20048;-84
2023/03/22 09:46:01;;;;;;;3.35;2.20;;;;;;;;;;5113180;28;20050;-84
2023/03/22 09:48:31;;;;;;;3.78;2.10;;;;;;;;;;5094898;28;20142;-84
2023/03/22 09:50:59;;;;;;;2.63;2.40;;;;;;;;;;5113219;28;20136;-84
2023/03/22 09:53:27;;;;;;;18.45;2.78;;;;;;;;;;5094960;28;20063;-84
2023/03/22 09:56:00;;;;;;;4.78;2.17;;;;;;;;;;5112704;28;20048;-84
2023/03/22 09:58:50;;;;;;;2.45;2.10;;;;;;;;;;5094888;28;20044;-84
2023/03/22 10:01:35;;;;;;;3.45;2.00;;;;;;;;;;5075472;28;20051;-84
2023/03/22 10:04:03;;;;;;;1.85;1.75;;;;;;;;;;5094536;28;20048;-84
2023/03/22 10:06:31;;;;;;;2.75;1.63;;;;;;;;;;5112957;28;20142;-85
2023/03/22 10:09:08;;;;;;;15.07;2.20;;;;;;;;;;5095248;28;20047;-84
2023/03/22 10:11:42;;;;;;;2.50;1.58;;;;;;;;;;5113046;28;20054;-86
2023/03/22 10:14:24;;;;;;;5.00;1.85;;;;;;;;;;5095181;28;20058;-85
2023/03/22 10:16:52;;;;;;;4.85;1.67;;;;;;;;;;5095404;28;20142;-85
2023/03/22 10:19:39;;;;;;;4.50;1.60;;;;;;;;;;5095269;28;20083;-85
2023/03/22 10:22:09;;;;;;;2.70;1.20;;;;;;;;;;5095150;28;20093;-87
2023/03/22 10:24:38;;;;;;;5.28;1.50;;;;;;;;;;5094887;28;20052;-84
2023/03/22 10:27:14;;;;;;;6.13;1.30;;;;;;;;;;5112869;28;20054;-85
2023/03/22 10:30:01;;;;;;;5.55;1.70;;;;;;;;;;5112965;28;20050;-84
2023/03/22 10:32:31;;;;;;;2.50;1.17;;;;;;;;;;5098210;28;20056;-83
2023/03/22 10:34:58;;;;;;;5.78;1.48;;;;;;;;;;5098478;28;20128;-85
2023/03/22 10:37:34;;;;;;;4.10;1.30;;;;;;;;;;5099304;28;20406;-86
2023/03/22 10:40:05;;;;;;;6.30;1.35;;;;;;;;;;5116779;28;20518;-85
2023/03/22 10:42:35;;;;;;;5.45;1.23;;;;;;;;;;5116284;28;20142;-84
2023/03/22 10:45:05;;;;;;;2.65;1.40;;;;;;;;;;5098151;28;20136;-84
2023/03/22 10:47:34;;;;;;;3.03;1.17;;;;;;;;;;5098062;28;20388;-84
2023/03/22 10:50:08;;;;;;;3.08;1.00;;;;;;;;;;5098306;28;20073;-86
2023/03/22 10:52:39;;;;;;;1.60;0.68;;;;;;;;;;5098055;28;20046;-85
2023/03/22 10:55:11;;;;;;;2.10;0.80;;;;;;;;;;5097587;28;20051;-84
2023/03/22 10:57:41;;;;;;;1.27;0.57;;;;;;;;;;5097690;28;20487;-84
2023/03/22 11:00:11;;;;;;;3.83;0.70;;;;;;;;;;5098103;28;20396;-84
2023/03/22 11:02:52;;;;;;;1.63;0.70;;;;;;;;;;5116077;28;20418;-84
2023/03/22 11:05:27;;;;;;;2.50;0.85;;;;;;;;;;5115646;28;20051;-85
2023/03/22 11:07:57;;;;;;;2.47;0.73;;;;;;;;;;5097863;28;20075;-84
2023/03/22 11:10:28;;;;;;;1.13;0.90;;;;;;;;;;5115342;28;20044;-84
2023/03/22 11:13:08;;;;;;;1.02;0.65;;;;;;;;;;5097803;28;20475;-85
2023/03/22 11:15:38;;;;;;;2.05;0.85;;;;;;;;;;5097219;28;20070;-86
2023/03/22 11:18:07;;;;;;;0.50;0.50;;;;;;;;;;5097563;28;20101;-84
2023/03/22 11:20:34;;;;;;;2.97;1.00;;;;;;;;;;5097484;28;20047;-85
2023/03/22 11:23:05;;;;;;;1.65;1.10;;;;;;;;;;5115740;28;20082;-84
2023/03/22 11:25:35;;;;;;;2.05;0.63;;;;;;;;;;5097461;28;20054;-85
2023/03/22 11:28:15;;;;;;;1.45;0.90;;;;;;;;;;5097420;28;20043;-85
2023/03/22 11:30:57;;;;;;;0.93;0.50;;;;;;;;;;5097450;28;20057;-84
2023/03/22 11:33:24;;;;;;;1.40;0.85;;;;;;;;;;5097479;28;20043;-85
2023/03/22 11:35:56;;;;;;;3.03;1.02;;;;;;;;;;5097321;28;20051;-85
2023/03/22 11:38:24;;;;;;;6.60;1.10;;;;;;;;;;5115535;28;20044;-84
2023/03/22 11:40:54;;;;;;;1.85;1.20;;;;;;;;;;5115412;28;20054;-85
2023/03/22 11:43:24;;;;;;;3.78;1.10;;;;;;;;;;5097045;28;20050;-84
2023/03/22 11:45:54;;;;;;;8.10;1.10;;;;;;;;;;5114559;28;20059;-84
2023/03/22 11:48:23;;;;;;;9.32;1.20;;;;;;;;;;5096983;28;20067;-84
2023/03/22 11:50:53;;;;;;;4.78;0.95;;;;;;;;;;5096851;28;20131;-86
2023/03/22 11:53:25;;;;;;;2.45;1.00;;;;;;;;;;5116003;28;20047;-86
2023/03/22 11:55:53;;;;;;;11.35;2.10;;;;;;;;;;5096800;28;20480;-84
2023/03/22 11:58:25;;;;;;;2.45;1.10;;;;;;;;;;5097082;28;20502;-86
2023/03/22 12:00:53;;;;;;;4.38;1.10;;;;;;;;;;5115141;28;20487;-84
2023/03/22 12:03:23;;;;;;;2.45;1.00;;;;;;;;;;5097005;28;20051;-86
2023/03/22 12:05:51;;;;;;;1.85;1.13;;;;;;;;;;5097131;28;20059;-85
2023/03/22 12:08:23;;;;;;;3.60;1.00;;;;;;;;;;5097365;28;20048;-86
2023/03/22 12:10:53;;;;;;;2.30;1.10;;;;;;;;;;5114564;28;20059;-86
2023/03/22 12:13:23;;;;;;;1.15;0.88;;;;;;;;;;5114900;28;20052;-85
2023/03/22 12:15:52;;;;;;;2.50;1.00;;;;;;;;;;5096571;28;20062;-85
2023/03/22 12:18:26;;;;;;;3.97;1.10;;;;;;;;;;5096509;28;20396;-85
2023/03/22 12:20:53;;;;;;;;;;;;;;;;;;5096657;28;20172;-85
2023/03/22 12:23:22;;;;;;;2.05;1.17;;;;;;;;;;5114225;28;19920;-85
2023/03/22 12:25:59;;;;;;;1.13;1.02;;;;;;;;;;5096069;28;20047;-85
2023/03/22 12:28:30;;;;;;;3.10;1.25;;;;;;;;;;5114226;28;20146;-85
2023/03/22 12:30:58;;;;;;;2.35;1.40;;;;;;;;;;5096076;28;20048;-85
2023/03/22 12:33:27;;;;;;;3.10;1.08;;;;;;;;;;5095911;28;20040;-85
2023/03/22 12:35:56;;;;;;;1.00;0.70;;;;;;;;;;5095771;28;20130;-84
2023/03/22 12:38:40;;;;;;;2.42;1.05;;;;;;;;;;5096001;28;20040;-83
2023/03/22 12:41:10;;;;;;;0.90;0.60;;;;;;;;;;5096008;28;20491;-84
2023/03/22 12:43:47;;;;;;;1.02;0.70;;;;;;;;;;5096399;28;20048;-84
2023/03/22 12:46:19;;;;;;;3.17;1.00;;;;;;;;;;5113552;28;20403;-84
2023/03/22 12:49:05;;;;;;;2.33;0.65;;;;;;;;;;5114191;28;20051;-85
2023/03/22 12:51:32;;;;;;;4.32;0.70;;;;;;;;;;5096094;28;20065;-85
2023/03/22 12:54:00;;;;;;;2.65;0.73;;;;;;;;;;5113193;28;20495;-84
2023/03/22 12:56:36;;;;;;;6.10;0.75;;;;;;;;;;5095594;28;20051;-84
2023/03/22 12:59:05;;;;;;;2.10;0.90;;;;;;;;;;5096055;28;20071;-84
2023/03/22 13:01:32;;;;;;;4.78;1.00;;;;;;;;;;5113820;28;20048;-85
2023/03/22 13:03:59;;;;;;;4.55;0.57;;;;;;;;;;5114023;28;20079;-87
2023/03/22 13:06:45;;;;;;;2.67;0.80;;;;;;;;;;5095533;28;20093;-85
2023/03/22 13:09:27;;;;;;;1.45;0.90;;;;;;;;;;5096872;28;20146;-85
2023/03/22 13:12:13;;;;;;;31.52;2.20;;;;;;;;;;5095696;28;20047;-85
2023/03/22 13:14:50;;;;;;;0.65;0.50;;;;;;;;;;5113522;28;20052;-85
2023/03/22 13:17:23;;;;;;;3.83;1.17;;;;;;;;;;5113580;28;20044;-84
2023/03/22 13:19:58;;;;;;;4.68;0.90;;;;;;;;;;5095947;28;20051;-84
2023/03/22 13:22:37;;;;;;;0.65;0.65;;;;;;;;;;5095636;28;20050;-84
2023/03/22 13:25:05;;;;;;;2.42;0.60;;;;;;;;;;5095306;28;20048;-87
2023/03/22 13:27:37;;;;;;;0.73;0.60;;;;;;;;;;5095464;28;20143;-86
2023/03/22 13:30:09;;;;;;;1.40;0.70;;;;;;;;;;5095589;28;20054;-85
2023/03/22 13:32:36;;;;;;;1.55;1.30;;;;;;;;;;5113681;28;20484;-86
2023/03/22 13:35:04;;;;;;;2.00;0.70;;;;;;;;;;5095566;28;20058;-85
2023/03/22 13:37:36;;;;;;;2.63;0.73;;;;;;;;;;5095253;28;20047;-86
2023/03/22 13:40:13;;;;;;;2.33;0.77;;;;;;;;;;5095820;28;20051;-85
2023/03/22 13:42:41;;;;;;;1.75;1.23;;;;;;;;;;5113330;28;20039;-84
2023/03/22 13:45:17;;;;;;;5.60;1.08;;;;;;;;;;5095383;28;20148;-85
2023/03/22 13:47:45;;;;;;;2.60;0.60;;;;;;;;;;5113163;28;20047;-85
2023/03/22 13:50:13;;;;;;;5.03;0.55;;;;;;;;;;5113112;28;20054;-85
2023/03/22 13:52:42;;;;;;;1.15;0.50;;;;;;;;;;5095180;28;20149;-85
2023/03/22 13:55:15;;;;;;;3.92;0.60;;;;;;;;;;5095270;28;20114;-86
2023/03/22 13:57:47;;;;;;;8.10;0.93;;;;;;;;;;5113091;28;20070;-86
2023/03/22 14:00:30;;;;;;;0.68;0.50;;;;;;;;;;5095242;28;20039;-86
2023/03/22 14:03:02;;;;;;;1.92;0.65;;;;;;;;;;5095539;28;20051;-85
2023/03/22 14:05:31;;;;;;;1.35;0.50;;;;;;;;;;5096209;28;20051;-85
2023/03/22 14:07:59;;;;;;;0.73;0.52;;;;;;;;;;5099026;28;20502;-84
2023/03/22 14:10:39;;;;;;;2.63;0.47;;;;;;;;;;5099279;28;20082;-85
2023/03/22 14:13:19;;;;;;;1.63;0.70;;;;;;;;;;5116877;28;20044;-84
2023/03/22 14:15:50;;;;;;;3.35;0.70;;;;;;;;;;5116834;28;20456;-86
2023/03/22 14:18:26;;;;;;;1.77;0.60;;;;;;;;;;5117081;28;20052;-85
2023/03/22 14:20:55;;;;;;;4.90;0.77;;;;;;;;;;5117061;28;20051;-84
2023/03/22 14:23:27;;;;;;;14.75;1.20;;;;;;;;;;5117274;28;20047;-85
2023/03/22 14:25:56;;;;;;;1.58;0.60;;;;;;;;;;5098437;28;20059;-85
2023/03/22 14:28:31;;;;;;;2.53;0.80;;;;;;;;;;5098451;28;20118;-85
2023/03/22 14:30:57;;;;;;;1.63;0.60;;;;;;;;;;5098905;28;20058;-86
2023/03/22 14:33:25;;;;;;;1.52;0.70;;;;;;;;;;5098834;28;20108;-85
2023/03/22 14:35:58;;;;;;;2.88;0.77;;;;;;;;;;5116619;28;20040;-86
2023/03/22 14:38:32;;;;;;;1.02;0.55;;;;;;;;;;5098377;28;20039;-86
2023/03/22 14:41:06;;;;;;;2.60;0.73;;;;;;;;;;5098665;28;20391;-84
2023/03/22 14:43:32;;;;;;;5.32;1.05;;;;;;;;;;5116798;28;20032;-85
2023/03/22 14:46:09;;;;;;;4.18;0.85;;;;;;;;;;5116650;28;20471;-85
2023/03/22 14:48:37;;;;;;;2.05;0.60;;;;;;;;;;5098706;28;20039;-85
2023/03/22 14:51:07;;;;;;;2.17;0.88;;;;;;;;;;5081498;28;20048;-85
2023/03/22 14:53:38;;;;;;;1.25;0.57;;;;;;;;;;5081320;28;20079;-85